Time;durP1;ratioP1;P1;durP2;ratioP2;P2;SDS_P1;SDS_P2;PMS_P1;PMS_P2;Temp;Humidity;BMP_temperature;BMP_pressure;BME280_temperature;BME280_humidity;BME280_pressure;Samples;Min_cycle;Max_cycle;Signal;HPM_P1;HPM_P2
2022/02/04 00:07:58;;;;;;;;;;;4.90;99.90;;;3.82;100.00;95322.28;10521477;28;1858;-68
2022/02/04 00:23:54;;;;;;;;;;;5.00;99.90;;;3.82;100.00;95328.41;10526840;28;1856;-68
2022/02/04 00:29:05;;;;;;;;;;;5.00;99.90;;;3.84;100.00;95322.84;10524941;28;1896;-69
2022/02/04 00:34:12;;;;;;;;;;;5.00;99.90;;;3.88;100.00;95329.28;10529177;28;1906;-69
2022/02/04 00:39:20;;;;;;;;;;;5.00;99.90;;;3.82;100.00;95332.91;10528873;28;1993;-68
2022/02/04 00:44:26;;;;;;;;;;;5.00;99.90;;;3.81;100.00;95348.06;10533635;28;1789;-69
2022/02/04 00:49:42;;;;;;;;;;;5.00;99.90;;;3.72;100.00;95350.31;10529249;28;1981;-68
2022/02/04 00:54:52;;;;;;;;;;;4.90;99.90;;;3.61;100.00;95356.50;10529971;28;1914;-68
2022/02/04 01:26:51;;;;;;;;;;;4.50;99.90;;;3.17;100.00;95406.72;10534195;28;1908;-68
2022/02/04 01:31:54;;;;;;;;;;;4.40;99.90;;;3.12;100.00;95413.78;10527879;28;1772;-69
2022/02/04 01:36:57;;;;;;;;;;;4.40;99.90;;;3.09;100.00;95417.72;10527707;28;1918;-68
2022/02/04 01:42:00;;;;;;;;;;;4.40;99.90;;;3.01;100.00;95411.97;10528463;28;1813;-67
2022/02/04 01:47:03;;;;;;;;;;;4.30;99.90;;;2.89;100.00;95406.69;10522052;28;1858;-70
2022/02/04 01:52:07;;;;;;;;;;;4.20;99.90;;;2.83;100.00;95404.97;10523606;28;1531;-69
2022/02/04 01:57:11;;;;;;;;;;;4.20;99.90;;;2.70;100.00;95404.16;10524858;28;1973;-68
2022/02/04 02:02:13;;;;;;;;;;;4.10;99.90;;;2.60;100.00;95405.78;10528047;28;1366;-69
2022/02/04 02:07:20;;;;;;;;;;;4.00;99.90;;;2.46;100.00;95405.22;10526631;28;1492;-69
2022/02/04 02:12:29;;;;;;;;;;;3.90;99.90;;;2.37;100.00;95415.38;10528421;28;1382;-69
2022/02/04 02:34:33;;;;;;;;;;;3.40;99.90;;;2.05;100.00;95430.81;10528480;28;1469;-68
2022/02/04 02:45:16;;;;;;;;;;;3.40;99.90;;;1.89;100.00;95436.75;10525224;28;1528;-69
2022/02/04 02:50:43;;;;;;;;;;;3.30;99.90;;;1.82;100.00;95436.06;10521359;28;2076;-69
2022/02/04 02:56:01;;;;;;;;;;;3.20;99.90;;;1.78;100.00;95434.88;10522755;28;1969;-68
2022/02/04 03:01:10;;;;;;;;;;;3.10;99.90;;;1.73;100.00;95440.88;10529957;28;1931;-68
2022/02/04 03:06:15;;;;;;;;;;;3.10;99.90;;;1.74;100.00;95433.75;10522671;28;1825;-69
2022/02/04 03:11:18;;;;;;;;;;;3.10;99.90;;;1.70;100.00;95435.22;10523280;28;1868;-68
2022/02/04 03:16:23;;;;;;;;;;;3.10;99.90;;;1.69;100.00;95431.75;10523031;28;1971;-69
2022/02/04 03:21:29;;;;;;;;;;;3.00;99.90;;;1.69;100.00;95438.91;10518803;28;1968;-69
2022/02/04 03:26:39;;;;;;;;;;;3.00;99.90;;;1.81;100.00;95445.03;10525325;28;1893;-67
2022/02/04 03:31:47;;;;;;;;;;;3.00;99.90;;;1.85;100.00;95436.44;10524667;28;1869;-68
2022/02/04 03:36:50;;;;;;;;;;;3.10;99.90;;;1.83;100.00;95438.47;10526912;28;1906;-68
2022/02/04 03:41:53;;;;;;;;;;;3.10;99.90;;;1.87;100.00;95450.25;10523972;28;1908;-68
2022/02/04 03:46:56;;;;;;;;;;;3.20;99.90;;;1.86;100.00;95463.72;10520417;28;1893;-70
2022/02/04 03:51:59;;;;;;;;;;;3.20;99.90;;;1.80;100.00;95465.44;10524732;28;1940;-68
2022/02/04 03:57:02;;;;;;;;;;;3.10;99.90;;;1.69;100.00;95460.91;10525195;28;1914;-69
2022/02/04 04:02:05;;;;;;;;;;;3.10;99.90;;;1.72;100.00;95462.28;10536533;28;1863;-70
2022/02/04 04:07:08;;;;;;;;;;;3.00;99.90;;;1.71;100.00;95456.19;10518897;28;1811;-68
2022/02/04 04:12:11;;;;;;;;;;;3.00;99.90;;;1.65;100.00;95466.88;10522944;28;1810;-68
2022/02/04 04:17:13;;;;;;;;;;;3.00;99.90;;;1.57;100.00;95471.47;10524084;28;1910;-68
2022/02/04 04:22:16;;;;;;;;;;;2.90;99.90;;;1.55;100.00;95478.03;10514318;28;1826;-69
2022/02/04 04:27:19;;;;;;;;;;;2.90;99.90;;;1.60;100.00;95481.63;10522912;28;1852;-69
2022/02/04 04:32:22;;;;;;;;;;;3.00;99.90;;;1.61;100.00;95493.03;10526978;28;1800;-67
2022/02/04 04:37:25;;;;;;;;;;;2.90;99.90;;;1.61;100.00;95501.78;10524494;28;2024;-68
2022/02/04 04:42:47;;;;;;;;;;;2.90;99.90;;;1.54;100.00;95503.72;10522600;28;1763;-68
2022/02/04 05:30:38;;;;;;;;;;;2.70;99.90;;;1.34;100.00;95543.69;10526803;28;1861;-69
2022/02/04 05:35:42;;;;;;;;;;;2.70;99.90;;;1.36;100.00;95532.88;10528232;28;1992;-69
2022/02/04 05:40:49;;;;;;;;;;;2.70;99.90;;;1.52;100.00;95532.25;10526027;28;1924;-68
2022/02/04 05:46:00;;;;;;;;;;;2.70;99.90;;;1.42;100.00;95531.16;10530002;28;1877;-68
2022/02/04 05:51:23;;;;;;;;;;;2.70;99.90;;;1.42;100.00;95539.13;10522847;28;1838;-68
2022/02/04 05:56:33;;;;;;;;;;;2.70;99.90;;;1.48;100.00;95533.75;10542544;28;2021;-68
2022/02/04 06:01:44;;;;;;;;;;;2.70;99.90;;;1.43;100.00;95538.88;10525031;28;1895;-70
2022/02/04 06:07:06;;;;;;;;;;;2.70;99.90;;;1.50;100.00;95539.63;10535223;22;1840;-71
2022/02/04 06:22:53;;;;;;;;;;;2.90;99.90;;;1.80;100.00;95549.44;10408717;28;1881;-68
2022/02/04 06:27:57;;;;;;;;;;;3.00;99.90;;;1.94;100.00;95556.19;10412626;28;1895;-67
2022/02/04 06:32:59;;;;;;;;;;;3.00;99.90;;;2.10;100.00;95571.47;10406002;28;2081;-68
2022/02/04 06:38:02;;;;;;;;;;;3.40;99.90;;;2.26;100.00;95574.50;10406657;28;1922;-68
2022/02/04 06:43:05;;;;;;;;;;;3.30;99.90;;;2.43;100.00;95586.09;10406640;28;1872;-69
2022/02/04 06:48:08;;;;;;;;;;;3.40;99.90;;;2.54;100.00;95587.94;10410099;28;1808;-68
2022/02/04 06:53:11;;;;;;;;;;;3.50;99.90;;;2.68;100.00;95584.06;10403556;28;1870;-69
2022/02/04 06:58:15;;;;;;;;;;;3.70;99.90;;;2.77;100.00;95586.38;10403590;28;1926;-69
2022/02/04 07:03:18;;;;;;;;;;;3.90;99.90;;;2.90;100.00;95591.47;10398610;28;1961;-69
2022/02/04 07:08:25;;;;;;;;;;;3.90;99.90;;;3.01;100.00;95582.72;10404048;28;1862;-69
2022/02/04 07:13:40;;;;;;;;;;;4.00;99.90;;;3.08;100.00;95594.03;10401829;28;1848;-69
2022/02/04 07:24:04;;;;;;;;;;;4.20;99.90;;;3.39;100.00;95598.19;10409529;28;1832;-69
2022/02/04 07:29:07;;;;;;;;;;;4.40;99.90;;;3.51;100.00;95600.84;10427099;28;1828;-67
2022/02/04 07:34:18;;;;;;;;;;;4.50;99.90;;;3.62;100.00;95607.97;10398204;28;1887;-69
2022/02/04 07:44:42;;;;;;;;;;;4.70;99.90;;;3.92;100.00;95621.09;10397954;28;1895;-67
2022/02/04 07:49:46;;;;;;;;;;;4.80;99.90;;;4.11;100.00;95613.75;10396184;28;1895;-69
2022/02/04 07:54:49;;;;;;;;;;;5.00;99.90;;;4.27;100.00;95613.00;10395259;28;1915;-69
2022/02/04 07:59:53;;;;;;;;;;;5.10;99.90;;;4.34;100.00;95607.53;10400913;28;1974;-67
2022/02/04 08:05:00;;;;;;;;;;;5.20;99.90;;;4.52;100.00;95609.19;10398230;28;1846;-67
2022/02/04 08:10:09;;;;;;;;;;;5.30;99.90;;;4.60;100.00;95606.13;10399737;28;1840;-67
2022/02/04 08:15:29;;;;;;;;;;;5.40;99.90;;;4.71;100.00;95605.25;10398067;28;1882;-67
2022/02/04 08:20:59;;;;;;;;;;;5.60;99.90;;;4.67;100.00;95605.97;10400940;28;1789;-69
2022/02/04 08:26:32;;;;;;;;;;;5.60;99.90;;;4.76;100.00;95597.34;10396985;28;1955;-68
2022/02/04 08:48:12;;;;;;;;;;;6.30;99.90;;;5.78;94.60;95596.16;10403489;28;1830;-69
2022/02/04 08:53:47;;;;;;;;;;;6.50;99.90;;;5.71;94.43;95598.22;10406655;28;2211;-68
2022/02/04 08:58:54;;;;;;;;;;;6.70;99.90;;;5.84;93.17;95595.19;10402375;28;1916;-69
2022/02/04 09:04:07;;;;;;;;;;;6.70;99.90;;;5.89;93.79;95592.59;10397572;28;2125;-69
2022/02/04 09:09:14;;;;;;;;;;;6.70;99.90;;;6.02;91.90;95591.44;10403649;28;2150;-68
2022/02/04 09:19:47;;;;;;;;;;;6.90;99.90;;;6.02;90.43;95601.28;10403726;28;1918;-68
2022/02/04 09:24:50;;;;;;;;;;;7.00;99.90;;;6.16;89.96;95608.66;10403571;28;1777;-70
2022/02/04 09:29:53;;;;;;;;;;;7.00;99.90;;;6.03;90.20;95616.25;10401451;28;1956;-69
2022/02/04 09:34:55;;;;;;;;;;;7.00;99.90;;;6.23;89.54;95613.81;10400731;28;1851;-68
2022/02/04 09:40:06;;;;;;;;;;;7.10;99.90;;;6.10;88.70;95603.53;10398694;28;1922;-68
2022/02/04 09:45:08;;;;;;;;;;;7.10;99.90;;;6.04;87.89;95599.97;10403152;28;1800;-68
2022/02/04 09:50:14;;;;;;;;;;;7.10;99.90;;;5.67;89.46;95594.44;10403673;28;1820;-68
2022/02/04 10:17:06;;;;;;;;;;;7.50;99.90;;;6.48;84.46;95582.03;10408429;28;1903;-69
2022/02/04 10:22:09;;;;;;;;;;;7.60;99.90;;;6.55;84.46;95584.50;10400445;28;1979;-69
2022/02/04 10:27:12;;;;;;;;;;;7.50;99.90;;;6.47;82.97;95583.09;10402483;28;1896;-69
2022/02/04 10:32:15;;;;;;;;;;;7.50;99.90;;;6.79;81.50;95579.66;10398117;28;1871;-70
2022/02/04 10:37:25;;;;;;;;;;;7.70;99.90;;;6.89;80.80;95579.75;10397622;28;1995;-70
2022/02/04 10:42:54;;;;;;;;;;;7.80;99.90;;;7.16;78.98;95569.00;10394268;28;1810;-68
2022/02/04 10:48:25;;;;;;;;;;;7.90;99.90;;;7.33;77.57;95552.81;10398475;28;1852;-70
2022/02/04 11:04:20;;;;;;;;;;;8.50;99.90;;;7.53;72.80;95523.50;10396617;28;1864;-70
2022/02/04 11:09:31;;;;;;;;;;;8.70;99.90;;;7.15;74.41;95523.81;10396389;28;1859;-70
2022/02/04 11:36:01;;;;;;;;;;;8.40;99.90;;;7.65;71.76;95485.03;10398550;28;1956;-69
2022/02/04 11:52:04;;;;;;;;;;;8.70;99.90;;;7.93;67.31;95455.16;10420677;28;1876;-68
2022/02/04 11:57:08;;;;;;;;;;;8.80;99.90;;;7.85;66.43;95450.31;10434641;28;1969;-70
2022/02/04 12:02:11;;;;;;;;;;;8.80;99.90;;;8.08;67.26;95439.13;10415652;28;1885;-69
2022/02/04 12:07:15;;;;;;;;;;;8.90;99.90;;;8.39;67.04;95431.13;10398994;28;1841;-71
2022/02/04 12:12:18;;;;;;;;;;;9.00;99.90;;;8.54;67.65;95423.09;10392662;28;1858;-70
2022/02/04 12:17:21;;;;;;;;;;;9.20;99.90;;;8.44;66.41;95411.59;10394419;28;1910;-69
2022/02/04 12:22:24;;;;;;;;;;;9.20;99.90;;;8.39;68.59;95402.47;10386657;28;1958;-68
2022/02/04 12:27:27;;;;;;;;;;;9.30;99.90;;;8.08;68.78;95398.16;10391169;28;1987;-69
2022/02/04 12:32:30;;;;;;;;;;;9.10;99.90;;;8.09;69.42;95378.34;10395896;28;2253;-69
2022/02/04 12:37:34;;;;;;;;;;;9.10;99.90;;;8.35;68.39;95379.16;10399661;28;1918;-69
2022/02/04 12:42:37;;;;;;;;;;;9.20;99.90;;;8.54;66.41;95369.53;10398609;28;1939;-70
2022/02/04 12:47:41;;;;;;;;;;;9.40;99.90;;;8.60;66.81;95373.81;10406981;28;1832;-69
2022/02/04 12:52:45;;;;;;;;;;;9.40;99.90;;;8.31;67.69;95359.34;10404568;28;1856;-70
2022/02/04 12:58:08;;;;;;;;;;;9.50;99.90;;;7.99;69.92;95346.22;10403435;28;2007;-68
2022/02/04 13:03:16;;;;;;;;;;;9.30;99.90;;;7.98;70.36;95348.09;10392557;28;1812;-70
2022/02/04 13:08:21;;;;;;;;;;;9.00;99.90;;;8.17;70.06;95336.84;10391599;28;1903;-72
2022/02/04 13:13:39;;;;;;;;;;;9.00;99.90;;;7.83;70.33;95338.19;10395757;28;1916;-72
2022/02/04 13:18:42;;;;;;;;;;;9.00;99.90;;;7.89;70.91;95330.97;10393791;28;1914;-72
2022/02/04 13:23:46;;;;;;;;;;;8.80;99.90;;;8.03;70.73;95328.56;10396592;28;1830;-71
2022/02/04 13:28:50;;;;;;;;;;;8.90;99.90;;;8.37;69.04;95313.56;10401597;28;1891;-71
2022/02/04 13:33:56;;;;;;;;;;;9.10;99.90;;;8.51;68.38;95327.19;10401346;28;1905;-72
2022/02/04 13:39:09;;;;;;;;;;;9.30;99.90;;;8.25;68.88;95313.00;10402679;28;1914;-72
2022/02/04 13:44:25;;;;;;;;;;;9.20;99.90;;;7.86;70.00;95318.13;10402949;28;2000;-73
2022/02/04 13:49:53;;;;;;;;;;;9.00;99.90;;;7.59;72.04;95307.66;10399380;28;1992;-72
2022/02/04 13:55:04;;;;;;;;;;;8.90;99.90;;;7.55;73.11;95312.72;10396056;28;2016;-73
2022/02/04 14:00:23;;;;;;;;;;;8.50;99.90;;;7.49;72.56;95303.09;10398216;28;1987;-73
2022/02/04 14:05:28;;;;;;;;;;;8.60;99.90;;;7.53;74.11;95298.84;10398750;28;1877;-74
2022/02/04 14:10:34;;;;;;;;;;;8.50;99.90;;;7.55;72.44;95302.03;10417880;28;1876;-70
2022/02/04 14:15:37;;;;;;;;;;;8.60;99.90;;;7.71;73.35;95296.72;10402044;28;1910;-69
2022/02/04 14:20:40;;;;;;;;;;;8.60;99.90;;;7.66;71.24;95288.69;10402374;28;1984;-68
2022/02/04 14:25:44;;;;;;;;;;;8.70;99.90;;;7.32;72.07;95289.19;10454994;22;1971;-71
2022/02/04 14:30:51;;;;;;;;;;;8.50;99.90;;;7.04;73.82;95287.75;10510295;28;1928;-71
2022/02/04 14:36:03;;;;;;;;;;;8.30;99.90;;;6.89;75.52;95283.19;10516661;28;1780;-70
2022/02/04 14:52:02;;;;;;;;;;;8.00;99.90;;;6.75;76.77;95279.38;10514486;28;1808;-71
2022/02/04 15:02:39;;;;;;;;;;;7.90;99.90;;;6.65;77.12;95264.13;10513950;28;1811;-70
2022/02/04 15:07:44;;;;;;;;;;;7.80;99.90;;;6.59;76.94;95265.16;10516326;28;1830;-70
2022/02/04 15:12:47;;;;;;;;;;;7.80;99.90;;;6.55;76.65;95263.25;10514141;28;1826;-70
2022/02/04 15:17:50;;;;;;;;;;;7.80;99.90;;;6.46;78.59;95244.28;10510048;28;1913;-69
2022/02/04 15:22:53;;;;;;;;;;;7.70;99.90;;;6.38;79.14;95232.22;10513670;28;1454;-71
2022/02/04 15:28:11;;;;;;;;;;;7.60;99.90;;;6.31;80.22;95244.22;10513411;28;1494;-69
2022/02/04 15:33:14;;;;;;;;;;;7.50;99.90;;;6.16;81.57;95243.03;10511539;28;2030;-70
2022/02/04 15:38:17;;;;;;;;;;;7.40;99.90;;;6.00;82.61;95243.22;10503098;28;1976;-71
2022/02/04 15:43:20;;;;;;;;;;;7.30;99.90;;;5.93;84.02;95238.13;10513662;28;1937;-72
2022/02/04 15:48:38;;;;;;;;;;;7.20;99.90;;;5.75;84.59;95249.97;10517462;28;1787;-71
2022/02/04 15:53:55;;;;;;;;;;;7.10;99.90;;;5.67;85.89;95251.25;10523323;28;1856;-71
2022/02/04 15:59:11;;;;;;;;;;;7.00;99.90;;;5.52;86.16;95242.31;10509440;28;1927;-70
2022/02/04 16:09:36;;;;;;;;;;;6.80;99.90;;;5.38;87.50;95249.94;10508438;28;1953;-70
2022/02/04 16:14:45;;;;;;;;;;;7.00;99.90;;;5.20;88.57;95239.63;10513021;28;1736;-72
2022/02/04 16:20:05;;;;;;;;;;;6.60;99.90;;;5.05;89.76;95234.97;10513329;28;1924;-71
2022/02/04 16:25:32;;;;;;;;;;;6.50;99.90;;;4.92;90.84;95238.03;10514936;28;2365;-70
2022/02/04 16:30:37;;;;;;;;;;;6.30;99.90;;;4.79;91.35;95242.69;10516178;28;1871;-70
2022/02/04 16:35:40;;;;;;;;;;;6.20;99.90;;;4.75;91.93;95240.78;10501997;28;1842;-71
2022/02/04 16:40:46;;;;;;;;;;;6.30;99.90;;;4.69;92.88;95247.91;10507516;28;2013;-69
2022/02/04 16:45:50;;;;;;;;;;;6.10;99.90;;;4.42;94.41;95239.06;10507648;28;1814;-71
2022/02/04 16:50:53;;;;;;;;;;;5.90;99.90;;;4.26;96.15;95238.91;10502633;28;1945;-70
2022/02/04 16:55:56;;;;;;;;;;;5.80;99.90;;;4.11;97.78;95241.34;10500170;28;1915;-71
2022/02/04 17:00:59;;;;;;;;;;;5.60;99.90;;;4.01;98.85;95241.22;10516575;28;1914;-72
2022/02/04 17:06:04;;;;;;;;;;;5.40;99.90;;;3.95;99.80;95228.91;10515814;28;1839;-71
2022/02/04 17:11:08;;;;;;;;;;;5.40;99.90;;;3.91;100.00;95241.06;10517898;28;1808;-71
2022/02/04 17:16:11;;;;;;;;;;;5.30;99.90;;;3.94;100.00;95252.00;10519223;28;1922;-69
2022/02/04 17:21:23;;;;;;;;;;;5.30;99.90;;;3.85;100.00;95253.47;10547577;27;1901;-69
2022/02/04 17:26:26;;;;;;;;;;;5.30;99.90;;;3.86;100.00;95270.22;10527438;28;1805;-69
2022/02/04 17:31:28;;;;;;;;;;;5.20;99.90;;;3.80;100.00;95283.44;10518719;28;1848;-69
2022/02/04 17:36:32;;;;;;;;;;;5.10;99.90;;;3.78;100.00;95290.88;10512771;28;1842;-70
2022/02/04 17:41:37;;;;;;;;;;;5.10;99.90;;;3.72;100.00;95299.81;10518662;28;1914;-70
2022/02/04 17:46:40;;;;;;;;;;;5.10;99.90;;;3.66;100.00;95298.13;10518030;28;1910;-69
2022/02/04 17:51:50;;;;;;;;;;;5.00;99.90;;;3.66;100.00;95306.09;10517607;28;1863;-70
2022/02/04 17:57:03;;;;;;;;;;;5.10;99.90;;;3.56;100.00;95311.22;10519737;28;1952;-71
2022/02/04 18:02:11;;;;;;;;;;;5.00;99.90;;;3.55;100.00;95320.25;10515762;28;1926;-70
2022/02/04 18:07:16;;;;;;;;;;;4.90;99.90;;;3.68;100.00;95338.53;10515259;28;1900;-70
2022/02/04 18:12:23;;;;;;;;;;;4.90;99.90;;;3.72;100.00;95338.88;10512831;28;1788;-70
2022/02/04 18:17:28;;;;;;;;;;;4.90;99.90;;;3.71;99.86;95351.38;10517258;28;1838;-71
2022/02/04 18:22:31;;;;;;;;;;;4.90;99.90;;;3.71;98.47;95359.34;10514085;28;1921;-69
2022/02/04 18:27:34;;;;;;;;;;;4.90;99.90;;;3.85;96.69;95378.44;10517367;28;1847;-70
2022/02/04 18:32:39;;;;;;;;;;;4.90;99.90;;;4.07;94.45;95386.50;10512109;28;1838;-69
2022/02/04 18:37:48;;;;;;;;;;;5.00;99.90;;;4.15;92.96;95390.63;10516226;28;1840;-69
2022/02/04 18:48:14;;;;;;;;;;;5.30;99.90;;;4.19;91.02;95387.22;10513000;28;1806;-70
2022/02/04 18:53:34;;;;;;;;;;;5.30;99.90;;;4.16;90.43;95393.03;10517917;28;1834;-71
2022/02/04 18:58:38;;;;;;;;;;;5.30;99.90;;;4.06;90.73;95408.81;10515633;28;1909;-69
2022/02/04 19:03:47;;;;;;;;;;;5.20;99.90;;;4.06;90.25;95419.47;10515410;28;1931;-70
2022/02/04 19:08:55;;;;;;;;;;;5.20;99.90;;;4.10;89.50;95415.28;10514914;28;1824;-71
2022/02/04 19:14:02;;;;;;;;;;;5.20;99.90;;;4.16;88.45;95422.31;10511773;28;1811;-71
2022/02/04 19:19:21;;;;;;;;;;;;;;;4.08;88.88;95377.50;10515900;28;1921;-69
2022/02/04 19:24:27;;;;;;;;;;;5.10;99.90;;;3.98;88.93;95387.97;10513414;28;1818;-70
2022/02/04 19:29:30;;;;;;;;;;;5.10;99.90;;;3.97;88.39;95368.53;10520792;28;1924;-71
2022/02/04 19:34:33;;;;;;;;;;;5.10;99.90;;;4.08;88.59;95366.84;10515355;28;2199;-70
2022/02/04 19:39:39;;;;;;;;;;;5.10;99.90;;;4.09;87.63;95379.09;10510098;28;1906;-72
2022/02/04 19:44:49;;;;;;;;;;;5.20;99.90;;;4.30;84.96;95383.69;10509113;28;1783;-70
2022/02/04 19:50:07;;;;;;;;;;;5.30;99.90;;;4.32;84.48;95381.56;10511147;28;1739;-71
2022/02/04 19:55:37;;;;;;;;;;;5.40;99.90;;;4.39;82.89;95378.75;10510538;28;1871;-71
2022/02/04 20:17:27;;;;;;;;;;;5.80;99.90;;;4.92;81.42;95366.69;10518927;28;1830;-71
2022/02/04 20:27:58;;;;;;;;;;;6.00;99.90;;;5.06;82.27;95369.78;10516097;28;1891;-71
2022/02/04 20:33:01;;;;;;;;;;;6.10;99.90;;;5.14;82.39;95372.00;10528905;28;1820;-71
2022/02/04 20:38:05;;;;;;;;;;;6.20;99.90;;;5.23;82.31;95375.84;10519705;28;1796;-71
2022/02/04 20:43:10;;;;;;;;;;;6.20;99.90;;;5.33;82.40;95367.94;10514162;28;1906;-71
2022/02/04 20:48:13;;;;;;;;;;;6.30;99.90;;;5.41;82.45;95369.38;10518211;28;2012;-71
2022/02/04 20:53:17;;;;;;;;;;;6.40;99.90;;;5.47;82.67;95363.06;10518233;28;1921;-70
2022/02/04 20:58:20;;;;;;;;;;;6.50;99.90;;;5.51;82.09;95361.47;10518680;28;1901;-70
2022/02/04 21:03:24;;;;;;;;;;;6.50;99.90;;;5.56;82.62;95371.38;10523903;28;1978;-71
2022/02/04 21:13:49;;;;;;;;;;;6.70;99.90;;;5.79;81.60;95367.59;10507163;28;2620;-71
2022/02/04 21:18:52;;;;;;;;;;;6.80;99.90;;;5.81;81.46;95365.50;10524220;28;1914;-71
2022/02/04 21:23:55;;;;;;;;;;;6.80;99.90;;;5.87;81.55;95359.94;10519692;28;1713;-69
2022/02/04 21:28:59;;;;;;;;;;;6.90;99.90;;;5.94;81.25;95352.56;10538817;27;1896;-69
2022/02/04 21:36:54;;;;;;;;;;;7.90;99.90;;;5.98;81.45;95366.22;10514410;28;1854;-70
2022/02/04 21:39:36;;;;;;;;;;;7.00;99.90;;;6.02;80.74;95350.50;10493276;28;1906;-69
2022/02/04 21:44:41;;;;;;;;;;;7.10;99.90;;;5.97;81.43;95365.38;10501525;28;1940;-71
2022/02/04 21:49:48;;;;;;;;;;;7.00;99.90;;;5.95;81.92;95362.19;10506720;28;1866;-70
2022/02/04 21:54:52;;;;;;;;;;;7.10;99.90;;;5.98;81.84;95371.56;10541633;22;3700;-66
2022/02/04 21:59:56;;;;;;;;;;;7.10;99.90;;;6.04;81.82;95367.03;10554845;28;1913;-67
2022/02/04 22:04:59;;;;;;;;;;;7.10;99.90;;;6.09;81.81;95354.53;10561605;28;1665;-65
2022/02/04 22:26:16;;;;;;;;;;;7.20;99.90;;;6.05;82.61;95369.47;10557059;28;1860;-66
2022/02/04 22:31:22;;;;;;;;;;;7.60;99.90;;;6.06;82.68;95378.28;10555413;28;1825;-67
2022/02/04 22:36:52;;;;;;;;;;;7.10;99.90;;;6.07;83.59;95393.22;10548831;28;1813;-66
2022/02/04 22:42:19;;;;;;;;;;;7.10;99.90;;;6.10;82.90;95390.03;10553937;28;1910;-65
2022/02/04 22:53:03;;;;;;;;;;;7.20;99.90;;;6.07;83.92;95395.91;10538727;28;1952;-67
2022/02/04 22:58:09;;;;;;;;;;;7.10;99.90;;;5.98;84.82;95398.22;10551505;28;1977;-66
2022/02/04 23:03:19;;;;;;;;;;;7.30;99.90;;;5.90;85.23;95393.31;10552263;28;1913;-66
2022/02/04 23:08:27;;;;;;;;;;;7.00;99.90;;;5.98;84.53;95387.56;10557864;28;1876;-66
2022/02/04 23:13:36;;;;;;;;;;;7.10;99.90;;;5.99;84.73;95388.38;10554944;28;1880;-66
2022/02/04 23:18:43;;;;;;;;;;;7.10;99.90;;;5.88;85.23;95404.22;10548123;28;1865;-66
2022/02/04 23:23:48;;;;;;;;;;;7.00;99.90;;;5.87;85.70;95397.28;10554896;28;1984;-68
2022/02/04 23:29:05;;;;;;;;;;;7.00;99.90;;;5.82;85.96;95405.25;10551990;28;1875;-67
2022/02/04 23:45:09;;;;;;;;;;;6.90;99.90;;;5.88;86.26;95424.78;10553352;28;1868;-66
2022/02/04 23:50:13;;;;;;;;;;;6.90;99.90;;;5.94;86.05;95423.78;10556264;28;1769;-65
2022/02/04 23:55:16;;;;;;;;;;;7.00;99.90;;;6.03;86.00;95432.13;10553156;28;1947;-67
